sensor_id;sensor_type;location;lat;lon;timestamp;P1;durP1;ratioP1;P2;durP2;ratioP2
54263;SDS011;40178;53.042;6.406;2023-02-18T00:02:01;11.25;;;2.13;;
54263;SDS011;40178;53.042;6.406;2023-02-18T00:04:30;11.65;;;1.77;;
54263;SDS011;40178;53.042;6.406;2023-02-18T00:06:55;8.77;;;1.55;;
54263;SDS011;40178;53.042;6.406;2023-02-18T00:09:21;17.63;;;2.75;;
54263;SDS011;40178;53.042;6.406;2023-02-18T00:11:47;13.05;;;2.20;;
54263;SDS011;40178;53.042;6.406;2023-02-18T00:14:14;10.60;;;1.70;;
54263;SDS011;40178;53.042;6.406;2023-02-18T00:16:41;10.38;;;1.83;;
54263;SDS011;40178;53.042;6.406;2023-02-18T00:19:09;11.15;;;2.33;;
54263;SDS011;40178;53.042;6.406;2023-02-18T00:21:37;9.02;;;2.42;;
54263;SDS011;40178;53.042;6.406;2023-02-18T00:24:03;13.35;;;2.17;;
54263;SDS011;40178;53.042;6.406;2023-02-18T00:26:30;9.27;;;2.15;;
54263;SDS011;40178;53.042;6.406;2023-02-18T00:28:56;10.48;;;2.13;;
54263;SDS011;40178;53.042;6.406;2023-02-18T00:31:26;13.20;;;2.17;;
54263;SDS011;40178;53.042;6.406;2023-02-18T00:33:53;11.32;;;2.63;;
54263;SDS011;40178;53.042;6.406;2023-02-18T00:36:21;15.70;;;2.53;;
54263;SDS011;40178;53.042;6.406;2023-02-18T00:38:51;9.73;;;2.30;;
54263;SDS011;40178;53.042;6.406;2023-02-18T00:41:18;10.98;;;2.00;;
54263;SDS011;40178;53.042;6.406;2023-02-18T00:43:45;10.15;;;2.70;;
54263;SDS011;40178;53.042;6.406;2023-02-18T00:46:11;11.63;;;2.17;;
54263;SDS011;40178;53.042;6.406;2023-02-18T00:48:38;12.63;;;2.35;;
54263;SDS011;40178;53.042;6.406;2023-02-18T00:51:04;10.63;;;2.60;;
54263;SDS011;40178;53.042;6.406;2023-02-18T00:53:31;11.02;;;2.00;;
54263;SDS011;40178;53.042;6.406;2023-02-18T00:55:56;14.80;;;2.72;;
54263;SDS011;40178;53.042;6.406;2023-02-18T00:58:22;11.52;;;2.35;;
54263;SDS011;40178;53.042;6.406;2023-02-18T01:00:48;15.40;;;3.05;;
54263;SDS011;40178;53.042;6.406;2023-02-18T01:03:14;12.90;;;2.65;;
54263;SDS011;40178;53.042;6.406;2023-02-18T01:05:40;15.30;;;3.47;;
54263;SDS011;40178;53.042;6.406;2023-02-18T01:08:07;9.48;;;2.20;;
54263;SDS011;40178;53.042;6.406;2023-02-18T01:10:34;15.45;;;2.25;;
54263;SDS011;40178;53.042;6.406;2023-02-18T01:13:03;8.98;;;2.58;;
54263;SDS011;40178;53.042;6.406;2023-02-18T01:15:29;14.35;;;2.60;;
54263;SDS011;40178;53.042;6.406;2023-02-18T01:17:55;7.70;;;1.92;;
54263;SDS011;40178;53.042;6.406;2023-02-18T01:20:21;9.13;;;2.58;;
54263;SDS011;40178;53.042;6.406;2023-02-18T01:22:47;10.95;;;2.88;;
54263;SDS011;40178;53.042;6.406;2023-02-18T01:25:12;11.10;;;2.72;;
54263;SDS011;40178;53.042;6.406;2023-02-18T01:27:39;13.32;;;2.90;;
54263;SDS011;40178;53.042;6.406;2023-02-18T01:30:05;12.65;;;3.50;;
54263;SDS011;40178;53.042;6.406;2023-02-18T01:32:32;16.67;;;2.85;;
54263;SDS011;40178;53.042;6.406;2023-02-18T01:35:02;14.60;;;3.22;;
54263;SDS011;40178;53.042;6.406;2023-02-18T01:37:29;17.65;;;3.55;;
54263;SDS011;40178;53.042;6.406;2023-02-18T01:39:54;13.45;;;3.70;;
54263;SDS011;40178;53.042;6.406;2023-02-18T01:42:21;17.50;;;2.97;;
54263;SDS011;40178;53.042;6.406;2023-02-18T01:44:49;12.70;;;3.80;;
54263;SDS011;40178;53.042;6.406;2023-02-18T01:47:16;12.25;;;3.83;;
54263;SDS011;40178;53.042;6.406;2023-02-18T01:49:42;15.07;;;4.07;;
54263;SDS011;40178;53.042;6.406;2023-02-18T01:52:28;11.80;;;4.20;;
54263;SDS011;40178;53.042;6.406;2023-02-18T01:54:56;15.15;;;4.47;;
54263;SDS011;40178;53.042;6.406;2023-02-18T01:57:32;13.38;;;4.38;;
54263;SDS011;40178;53.042;6.406;2023-02-18T02:00:05;18.77;;;4.95;;
54263;SDS011;40178;53.042;6.406;2023-02-18T02:02:36;13.63;;;4.38;;
54263;SDS011;40178;53.042;6.406;2023-02-18T02:05:06;14.52;;;4.47;;
54263;SDS011;40178;53.042;6.406;2023-02-18T02:07:31;16.55;;;4.50;;
54263;SDS011;40178;53.042;6.406;2023-02-18T02:09:57;18.35;;;4.75;;
54263;SDS011;40178;53.042;6.406;2023-02-18T02:20:46;16.42;;;5.88;;
54263;SDS011;40178;53.042;6.406;2023-02-18T02:37:42;13.52;;;6.20;;
54263;SDS011;40178;53.042;6.406;2023-02-18T02:53:52;11.55;;;5.18;;
54263;SDS011;40178;53.042;6.406;2023-02-18T02:56:19;14.40;;;5.95;;
54263;SDS011;40178;53.042;6.406;2023-02-18T02:58:55;18.95;;;4.53;;
54263;SDS011;40178;53.042;6.406;2023-02-18T03:04:31;14.25;;;4.53;;
54263;SDS011;40178;53.042;6.406;2023-02-18T03:07:13;16.70;;;4.82;;
54263;SDS011;40178;53.042;6.406;2023-02-18T03:18:13;12.00;;;4.97;;
54263;SDS011;40178;53.042;6.406;2023-02-18T03:20:52;12.10;;;4.25;;
54263;SDS011;40178;53.042;6.406;2023-02-18T03:23:21;12.18;;;4.32;;
54263;SDS011;40178;53.042;6.406;2023-02-18T03:25:52;15.35;;;4.68;;
54263;SDS011;40178;53.042;6.406;2023-02-18T03:28:20;14.93;;;5.00;;
54263;SDS011;40178;53.042;6.406;2023-02-18T03:30:58;12.45;;;4.45;;
54263;SDS011;40178;53.042;6.406;2023-02-18T03:33:36;13.35;;;4.82;;
54263;SDS011;40178;53.042;6.406;2023-02-18T03:36:04;11.60;;;5.35;;
54263;SDS011;40178;53.042;6.406;2023-02-18T03:38:34;16.75;;;5.28;;
54263;SDS011;40178;53.042;6.406;2023-02-18T03:41:03;13.77;;;5.50;;
54263;SDS011;40178;53.042;6.406;2023-02-18T03:43:29;17.42;;;6.00;;
54263;SDS011;40178;53.042;6.406;2023-02-18T03:45:55;13.15;;;6.18;;
54263;SDS011;40178;53.042;6.406;2023-02-18T03:48:21;16.52;;;7.28;;
54263;SDS011;40178;53.042;6.406;2023-02-18T03:50:47;19.52;;;7.40;;
54263;SDS011;40178;53.042;6.406;2023-02-18T03:53:12;21.13;;;7.63;;
54263;SDS011;40178;53.042;6.406;2023-02-18T03:55:38;20.15;;;7.80;;
54263;SDS011;40178;53.042;6.406;2023-02-18T03:58:04;17.83;;;8.20;;
54263;SDS011;40178;53.042;6.406;2023-02-18T04:00:29;25.70;;;9.88;;
54263;SDS011;40178;53.042;6.406;2023-02-18T04:02:55;27.38;;;10.93;;
54263;SDS011;40178;53.042;6.406;2023-02-18T04:05:20;24.88;;;10.45;;
54263;SDS011;40178;53.042;6.406;2023-02-18T04:07:46;29.65;;;10.52;;
54263;SDS011;40178;53.042;6.406;2023-02-18T04:10:12;26.10;;;11.65;;
54263;SDS011;40178;53.042;6.406;2023-02-18T04:12:37;29.15;;;10.63;;
54263;SDS011;40178;53.042;6.406;2023-02-18T04:15:03;30.63;;;12.02;;
54263;SDS011;40178;53.042;6.406;2023-02-18T04:17:29;31.00;;;13.45;;
54263;SDS011;40178;53.042;6.406;2023-02-18T04:19:56;35.72;;;12.43;;
54263;SDS011;40178;53.042;6.406;2023-02-18T04:22:21;35.60;;;13.15;;
54263;SDS011;40178;53.042;6.406;2023-02-18T04:24:47;32.75;;;13.73;;
54263;SDS011;40178;53.042;6.406;2023-02-18T04:27:12;34.47;;;14.98;;
54263;SDS011;40178;53.042;6.406;2023-02-18T04:29:38;41.53;;;16.80;;
54263;SDS011;40178;53.042;6.406;2023-02-18T04:32:04;40.30;;;17.42;;
54263;SDS011;40178;53.042;6.406;2023-02-18T04:34:29;45.83;;;19.35;;
54263;SDS011;40178;53.042;6.406;2023-02-18T04:36:55;48.72;;;19.38;;
54263;SDS011;40178;53.042;6.406;2023-02-18T04:39:21;50.53;;;19.98;;
54263;SDS011;40178;53.042;6.406;2023-02-18T04:41:47;48.05;;;22.17;;
54263;SDS011;40178;53.042;6.406;2023-02-18T04:44:12;59.17;;;21.83;;
54263;SDS011;40178;53.042;6.406;2023-02-18T04:46:38;57.33;;;21.98;;
54263;SDS011;40178;53.042;6.406;2023-02-18T04:49:04;58.80;;;23.27;;
54263;SDS011;40178;53.042;6.406;2023-02-18T04:51:29;61.83;;;23.23;;
54263;SDS011;40178;53.042;6.406;2023-02-18T04:53:55;64.65;;;24.23;;
54263;SDS011;40178;53.042;6.406;2023-02-18T04:56:20;66.93;;;24.70;;
54263;SDS011;40178;53.042;6.406;2023-02-18T04:58:46;70.85;;;24.63;;
54263;SDS011;40178;53.042;6.406;2023-02-18T05:01:12;70.40;;;25.20;;
54263;SDS011;40178;53.042;6.406;2023-02-18T05:03:37;73.72;;;26.60;;
54263;SDS011;40178;53.042;6.406;2023-02-18T05:06:03;73.30;;;24.80;;
54263;SDS011;40178;53.042;6.406;2023-02-18T05:08:29;80.03;;;28.60;;
54263;SDS011;40178;53.042;6.406;2023-02-18T05:10:54;82.60;;;26.48;;
54263;SDS011;40178;53.042;6.406;2023-02-18T05:13:20;78.13;;;26.08;;
54263;SDS011;40178;53.042;6.406;2023-02-18T05:15:46;69.22;;;26.88;;
54263;SDS011;40178;53.042;6.406;2023-02-18T05:18:13;87.32;;;26.95;;
54263;SDS011;40178;53.042;6.406;2023-02-18T05:20:38;84.55;;;26.52;;
54263;SDS011;40178;53.042;6.406;2023-02-18T05:23:04;73.70;;;25.42;;
54263;SDS011;40178;53.042;6.406;2023-02-18T05:25:29;85.20;;;27.23;;
54263;SDS011;40178;53.042;6.406;2023-02-18T05:27:55;74.47;;;27.17;;
54263;SDS011;40178;53.042;6.406;2023-02-18T05:30:21;87.40;;;28.08;;
54263;SDS011;40178;53.042;6.406;2023-02-18T05:32:46;78.53;;;30.27;;
54263;SDS011;40178;53.042;6.406;2023-02-18T05:35:12;103.25;;;34.13;;
54263;SDS011;40178;53.042;6.406;2023-02-18T05:37:38;87.13;;;33.25;;
54263;SDS011;40178;53.042;6.406;2023-02-18T05:40:04;99.32;;;33.92;;
54263;SDS011;40178;53.042;6.406;2023-02-18T05:42:30;97.75;;;34.40;;
54263;SDS011;40178;53.042;6.406;2023-02-18T05:44:57;107.28;;;36.88;;
54263;SDS011;40178;53.042;6.406;2023-02-18T05:47:23;101.55;;;32.15;;
54263;SDS011;40178;53.042;6.406;2023-02-18T05:49:49;92.18;;;32.75;;
54263;SDS011;40178;53.042;6.406;2023-02-18T05:52:15;94.55;;;31.55;;
54263;SDS011;40178;53.042;6.406;2023-02-18T05:54:41;68.65;;;28.23;;
54263;SDS011;40178;53.042;6.406;2023-02-18T05:57:09;90.97;;;32.08;;
54263;SDS011;40178;53.042;6.406;2023-02-18T05:59:37;88.13;;;28.90;;
54263;SDS011;40178;53.042;6.406;2023-02-18T06:02:02;87.05;;;29.42;;
54263;SDS011;40178;53.042;6.406;2023-02-18T06:04:28;69.88;;;25.48;;
54263;SDS011;40178;53.042;6.406;2023-02-18T06:06:53;62.42;;;23.70;;
54263;SDS011;40178;53.042;6.406;2023-02-18T06:09:19;56.88;;;20.08;;
54263;SDS011;40178;53.042;6.406;2023-02-18T06:11:45;54.13;;;20.55;;
54263;SDS011;40178;53.042;6.406;2023-02-18T06:14:10;44.83;;;17.77;;
54263;SDS011;40178;53.042;6.406;2023-02-18T06:16:36;43.35;;;17.45;;
54263;SDS011;40178;53.042;6.406;2023-02-18T06:19:02;43.25;;;15.90;;
54263;SDS011;40178;53.042;6.406;2023-02-18T06:21:28;40.47;;;16.65;;
54263;SDS011;40178;53.042;6.406;2023-02-18T06:23:53;35.80;;;14.85;;
54263;SDS011;40178;53.042;6.406;2023-02-18T06:26:19;40.35;;;15.40;;
54263;SDS011;40178;53.042;6.406;2023-02-18T06:28:45;33.92;;;15.63;;
54263;SDS011;40178;53.042;6.406;2023-02-18T06:31:10;41.28;;;15.20;;
54263;SDS011;40178;53.042;6.406;2023-02-18T06:33:36;39.33;;;16.88;;
54263;SDS011;40178;53.042;6.406;2023-02-18T06:36:05;31.70;;;14.85;;
54263;SDS011;40178;53.042;6.406;2023-02-18T06:38:34;38.95;;;18.08;;
54263;SDS011;40178;53.042;6.406;2023-02-18T06:41:00;40.22;;;18.90;;
54263;SDS011;40178;53.042;6.406;2023-02-18T06:43:26;43.08;;;18.85;;
54263;SDS011;40178;53.042;6.406;2023-02-18T06:45:52;41.15;;;19.70;;
54263;SDS011;40178;53.042;6.406;2023-02-18T06:48:17;40.05;;;20.10;;
54263;SDS011;40178;53.042;6.406;2023-02-18T06:50:43;44.55;;;20.85;;
54263;SDS011;40178;53.042;6.406;2023-02-18T06:53:09;38.92;;;18.77;;
54263;SDS011;40178;53.042;6.406;2023-02-18T06:55:35;47.17;;;21.33;;
54263;SDS011;40178;53.042;6.406;2023-02-18T06:58:01;43.00;;;20.02;;
54263;SDS011;40178;53.042;6.406;2023-02-18T07:00:27;45.08;;;21.02;;
54263;SDS011;40178;53.042;6.406;2023-02-18T07:02:53;41.25;;;20.95;;
54263;SDS011;40178;53.042;6.406;2023-02-18T07:05:18;45.60;;;20.77;;
54263;SDS011;40178;53.042;6.406;2023-02-18T07:07:44;49.85;;;22.00;;
54263;SDS011;40178;53.042;6.406;2023-02-18T07:10:09;48.38;;;23.15;;
54263;SDS011;40178;53.042;6.406;2023-02-18T07:12:35;46.42;;;19.88;;
54263;SDS011;40178;53.042;6.406;2023-02-18T07:15:01;47.00;;;19.67;;
54263;SDS011;40178;53.042;6.406;2023-02-18T07:17:27;46.55;;;20.02;;
54263;SDS011;40178;53.042;6.406;2023-02-18T07:19:53;43.38;;;19.85;;
54263;SDS011;40178;53.042;6.406;2023-02-18T07:22:20;50.03;;;20.13;;
54263;SDS011;40178;53.042;6.406;2023-02-18T07:24:49;49.22;;;20.33;;
54263;SDS011;40178;53.042;6.406;2023-02-18T07:27:16;36.92;;;18.85;;
54263;SDS011;40178;53.042;6.406;2023-02-18T07:29:42;42.78;;;17.75;;
54263;SDS011;40178;53.042;6.406;2023-02-18T07:32:09;38.63;;;16.67;;
54263;SDS011;40178;53.042;6.406;2023-02-18T07:34:39;45.72;;;17.50;;
54263;SDS011;40178;53.042;6.406;2023-02-18T07:37:05;34.33;;;16.00;;
54263;SDS011;40178;53.042;6.406;2023-02-18T07:39:42;35.88;;;15.25;;
54263;SDS011;40178;53.042;6.406;2023-02-18T07:42:11;31.80;;;13.93;;
54263;SDS011;40178;53.042;6.406;2023-02-18T07:44:38;34.08;;;13.85;;
54263;SDS011;40178;53.042;6.406;2023-02-18T07:47:05;32.97;;;14.55;;
54263;SDS011;40178;53.042;6.406;2023-02-18T07:49:31;30.92;;;13.60;;
54263;SDS011;40178;53.042;6.406;2023-02-18T07:51:57;31.42;;;13.90;;
54263;SDS011;40178;53.042;6.406;2023-02-18T07:54:23;31.45;;;13.13;;
54263;SDS011;40178;53.042;6.406;2023-02-18T07:56:49;32.03;;;13.95;;
54263;SDS011;40178;53.042;6.406;2023-02-18T07:59:16;27.73;;;11.05;;
54263;SDS011;40178;53.042;6.406;2023-02-18T08:01:41;26.08;;;11.43;;
54263;SDS011;40178;53.042;6.406;2023-02-18T08:04:07;26.00;;;11.07;;
54263;SDS011;40178;53.042;6.406;2023-02-18T08:06:34;26.42;;;10.82;;
54263;SDS011;40178;53.042;6.406;2023-02-18T08:09:02;27.42;;;10.55;;
54263;SDS011;40178;53.042;6.406;2023-02-18T08:11:28;21.83;;;8.70;;
54263;SDS011;40178;53.042;6.406;2023-02-18T08:13:55;19.35;;;7.95;;
54263;SDS011;40178;53.042;6.406;2023-02-18T08:16:20;19.30;;;7.93;;
54263;SDS011;40178;53.042;6.406;2023-02-18T08:18:47;24.65;;;9.25;;
54263;SDS011;40178;53.042;6.406;2023-02-18T08:21:14;14.98;;;5.95;;
54263;SDS011;40178;53.042;6.406;2023-02-18T08:23:40;16.15;;;6.20;;
54263;SDS011;40178;53.042;6.406;2023-02-18T08:26:06;20.48;;;5.60;;
54263;SDS011;40178;53.042;6.406;2023-02-18T08:28:32;15.23;;;5.70;;
54263;SDS011;40178;53.042;6.406;2023-02-18T08:30:58;15.98;;;5.88;;
54263;SDS011;40178;53.042;6.406;2023-02-18T08:33:24;15.15;;;4.97;;
54263;SDS011;40178;53.042;6.406;2023-02-18T08:35:50;16.35;;;5.05;;
54263;SDS011;40178;53.042;6.406;2023-02-18T08:38:17;12.73;;;4.82;;
54263;SDS011;40178;53.042;6.406;2023-02-18T08:40:44;16.70;;;5.93;;
54263;SDS011;40178;53.042;6.406;2023-02-18T08:43:10;13.02;;;5.05;;
54263;SDS011;40178;53.042;6.406;2023-02-18T08:45:36;16.05;;;5.00;;
54263;SDS011;40178;53.042;6.406;2023-02-18T08:48:03;16.55;;;5.10;;
54263;SDS011;40178;53.042;6.406;2023-02-18T08:50:29;19.63;;;5.55;;
54263;SDS011;40178;53.042;6.406;2023-02-18T08:52:56;20.33;;;5.40;;
54263;SDS011;40178;53.042;6.406;2023-02-18T08:55:24;17.17;;;4.93;;
54263;SDS011;40178;53.042;6.406;2023-02-18T08:57:51;19.33;;;5.63;;
54263;SDS011;40178;53.042;6.406;2023-02-18T09:00:16;15.25;;;4.90;;
54263;SDS011;40178;53.042;6.406;2023-02-18T09:02:42;14.35;;;5.03;;
54263;SDS011;40178;53.042;6.406;2023-02-18T09:05:08;13.45;;;4.38;;
54263;SDS011;40178;53.042;6.406;2023-02-18T09:07:35;13.65;;;4.80;;
54263;SDS011;40178;53.042;6.406;2023-02-18T09:10:01;11.80;;;4.40;;
54263;SDS011;40178;53.042;6.406;2023-02-18T09:12:27;13.13;;;3.97;;
54263;SDS011;40178;53.042;6.406;2023-02-18T09:14:53;15.15;;;3.97;;
54263;SDS011;40178;53.042;6.406;2023-02-18T09:17:18;13.80;;;3.88;;
54263;SDS011;40178;53.042;6.406;2023-02-18T09:19:45;12.63;;;4.40;;
54263;SDS011;40178;53.042;6.406;2023-02-18T09:22:10;13.13;;;3.85;;
54263;SDS011;40178;53.042;6.406;2023-02-18T09:24:36;11.82;;;3.85;;
54263;SDS011;40178;53.042;6.406;2023-02-18T09:27:03;12.20;;;4.25;;
54263;SDS011;40178;53.042;6.406;2023-02-18T09:29:29;14.35;;;3.90;;
54263;SDS011;40178;53.042;6.406;2023-02-18T09:31:59;12.68;;;3.97;;
54263;SDS011;40178;53.042;6.406;2023-02-18T09:34:25;12.85;;;3.40;;
54263;SDS011;40178;53.042;6.406;2023-02-18T09:36:51;14.13;;;3.60;;
54263;SDS011;40178;53.042;6.406;2023-02-18T09:39:16;10.93;;;3.60;;
54263;SDS011;40178;53.042;6.406;2023-02-18T09:41:48;11.32;;;3.28;;
54263;SDS011;40178;53.042;6.406;2023-02-18T09:44:22;12.98;;;3.28;;
54263;SDS011;40178;53.042;6.406;2023-02-18T09:49:27;14.15;;;2.92;;
54263;SDS011;40178;53.042;6.406;2023-02-18T09:51:59;11.95;;;2.70;;
54263;SDS011;40178;53.042;6.406;2023-02-18T09:54:48;9.55;;;2.40;;
54263;SDS011;40178;53.042;6.406;2023-02-18T09:57:18;12.05;;;3.08;;
54263;SDS011;40178;53.042;6.406;2023-02-18T09:59:50;13.05;;;2.92;;
54263;SDS011;40178;53.042;6.406;2023-02-18T10:02:24;14.40;;;2.85;;
54263;SDS011;40178;53.042;6.406;2023-02-18T10:04:50;7.78;;;2.10;;
54263;SDS011;40178;53.042;6.406;2023-02-18T10:07:28;15.20;;;2.80;;
54263;SDS011;40178;53.042;6.406;2023-02-18T10:09:56;10.30;;;2.33;;
54263;SDS011;40178;53.042;6.406;2023-02-18T10:12:26;11.65;;;2.17;;
54263;SDS011;40178;53.042;6.406;2023-02-18T10:14:58;14.60;;;2.58;;
54263;SDS011;40178;53.042;6.406;2023-02-18T10:17:26;10.35;;;2.22;;
54263;SDS011;40178;53.042;6.406;2023-02-18T10:19:55;12.75;;;1.85;;
54263;SDS011;40178;53.042;6.406;2023-02-18T10:22:22;9.00;;;2.10;;
54263;SDS011;40178;53.042;6.406;2023-02-18T10:24:54;9.45;;;1.75;;
54263;SDS011;40178;53.042;6.406;2023-02-18T10:27:25;10.90;;;1.75;;
54263;SDS011;40178;53.042;6.406;2023-02-18T10:30:39;6.78;;;1.52;;
54263;SDS011;40178;53.042;6.406;2023-02-18T10:33:04;12.35;;;1.55;;
54263;SDS011;40178;53.042;6.406;2023-02-18T10:35:50;11.93;;;2.20;;
54263;SDS011;40178;53.042;6.406;2023-02-18T10:52:16;11.95;;;2.60;;
54263;SDS011;40178;53.042;6.406;2023-02-18T10:54:48;9.55;;;2.03;;
54263;SDS011;40178;53.042;6.406;2023-02-18T10:57:19;8.95;;;1.80;;
54263;SDS011;40178;53.042;6.406;2023-02-18T10:59:54;12.60;;;2.53;;
54263;SDS011;40178;53.042;6.406;2023-02-18T11:02:39;10.48;;;2.17;;
54263;SDS011;40178;53.042;6.406;2023-02-18T11:05:15;9.68;;;2.08;;
54263;SDS011;40178;53.042;6.406;2023-02-18T11:07:45;6.68;;;1.58;;
54263;SDS011;40178;53.042;6.406;2023-02-18T11:10:16;11.52;;;2.20;;
54263;SDS011;40178;53.042;6.406;2023-02-18T11:12:50;9.07;;;2.10;;
54263;SDS011;40178;53.042;6.406;2023-02-18T11:15:22;14.52;;;2.42;;
54263;SDS011;40178;53.042;6.406;2023-02-18T11:17:53;12.15;;;2.58;;
54263;SDS011;40178;53.042;6.406;2023-02-18T11:23:12;13.55;;;2.78;;
54263;SDS011;40178;53.042;6.406;2023-02-18T11:25:41;10.95;;;2.50;;
54263;SDS011;40178;53.042;6.406;2023-02-18T11:30:47;10.73;;;2.63;;
54263;SDS011;40178;53.042;6.406;2023-02-18T11:33:19;13.38;;;3.35;;
54263;SDS011;40178;53.042;6.406;2023-02-18T11:35:51;13.27;;;2.55;;
54263;SDS011;40178;53.042;6.406;2023-02-18T11:38:26;13.25;;;2.53;;
54263;SDS011;40178;53.042;6.406;2023-02-18T11:41:08;11.68;;;2.00;;
54263;SDS011;40178;53.042;6.406;2023-02-18T11:43:36;10.68;;;1.95;;
54263;SDS011;40178;53.042;6.406;2023-02-18T11:46:10;9.38;;;2.20;;
54263;SDS011;40178;53.042;6.406;2023-02-18T11:48:36;9.00;;;2.58;;
54263;SDS011;40178;53.042;6.406;2023-02-18T11:51:02;12.30;;;2.72;;
54263;SDS011;40178;53.042;6.406;2023-02-18T11:53:30;10.80;;;2.50;;
54263;SDS011;40178;53.042;6.406;2023-02-18T11:55:58;11.68;;;2.53;;
54263;SDS011;40178;53.042;6.406;2023-02-18T11:58:27;9.80;;;3.00;;
54263;SDS011;40178;53.042;6.406;2023-02-18T12:01:05;10.07;;;2.78;;
54263;SDS011;40178;53.042;6.406;2023-02-18T12:03:42;8.93;;;2.88;;
54263;SDS011;40178;53.042;6.406;2023-02-18T12:06:17;13.85;;;2.72;;
54263;SDS011;40178;53.042;6.406;2023-02-18T12:08:50;12.13;;;2.63;;
54263;SDS011;40178;53.042;6.406;2023-02-18T12:11:27;9.70;;;2.45;;
54263;SDS011;40178;53.042;6.406;2023-02-18T12:13:57;9.15;;;2.60;;
54263;SDS011;40178;53.042;6.406;2023-02-18T12:25:24;12.30;;;2.55;;
54263;SDS011;40178;53.042;6.406;2023-02-18T12:38:28;10.75;;;2.33;;
54263;SDS011;40178;53.042;6.406;2023-02-18T12:44:05;10.05;;;2.03;;
54263;SDS011;40178;53.042;6.406;2023-02-18T12:57:54;9.05;;;1.85;;
54263;SDS011;40178;53.042;6.406;2023-02-18T13:14:15;9.05;;;2.83;;
54263;SDS011;40178;53.042;6.406;2023-02-18T13:16:47;13.00;;;2.10;;
54263;SDS011;40178;53.042;6.406;2023-02-18T13:19:23;11.57;;;2.40;;
54263;SDS011;40178;53.042;6.406;2023-02-18T13:21:50;12.60;;;1.70;;
54263;SDS011;40178;53.042;6.406;2023-02-18T13:24:25;10.43;;;2.03;;
54263;SDS011;40178;53.042;6.406;2023-02-18T13:30:01;9.32;;;1.92;;
54263;SDS011;40178;53.042;6.406;2023-02-18T13:35:18;5.22;;;1.38;;
54263;SDS011;40178;53.042;6.406;2023-02-18T13:40:55;9.30;;;1.88;;
54263;SDS011;40178;53.042;6.406;2023-02-18T13:46:01;10.70;;;1.90;;
54263;SDS011;40178;53.042;6.406;2023-02-18T13:48:27;7.97;;;2.38;;
54263;SDS011;40178;53.042;6.406;2023-02-18T13:50:53;10.77;;;2.15;;
54263;SDS011;40178;53.042;6.406;2023-02-18T13:53:27;8.18;;;2.25;;
54263;SDS011;40178;53.042;6.406;2023-02-18T13:59:01;14.93;;;2.45;;
54263;SDS011;40178;53.042;6.406;2023-02-18T14:02:06;11.10;;;2.30;;
54263;SDS011;40178;53.042;6.406;2023-02-18T14:25:48;12.68;;;2.45;;
54263;SDS011;40178;53.042;6.406;2023-02-18T14:31:00;10.30;;;2.42;;
54263;SDS011;40178;53.042;6.406;2023-02-18T14:33:53;10.98;;;2.30;;
54263;SDS011;40178;53.042;6.406;2023-02-18T14:44:53;12.35;;;2.20;;
54263;SDS011;40178;53.042;6.406;2023-02-18T14:50:22;10.65;;;1.80;;
54263;SDS011;40178;53.042;6.406;2023-02-18T14:52:48;9.38;;;1.75;;
54263;SDS011;40178;53.042;6.406;2023-02-18T14:55:37;10.48;;;2.15;;
54263;SDS011;40178;53.042;6.406;2023-02-18T14:58:25;12.35;;;2.33;;
54263;SDS011;40178;53.042;6.406;2023-02-18T15:01:04;11.40;;;1.98;;
54263;SDS011;40178;53.042;6.406;2023-02-18T15:03:42;11.48;;;2.25;;
54263;SDS011;40178;53.042;6.406;2023-02-18T15:06:24;9.38;;;2.13;;
54263;SDS011;40178;53.042;6.406;2023-02-18T15:08:57;17.77;;;3.47;;
54263;SDS011;40178;53.042;6.406;2023-02-18T15:11:25;11.30;;;2.20;;
54263;SDS011;40178;53.042;6.406;2023-02-18T15:14:25;11.63;;;2.53;;
54263;SDS011;40178;53.042;6.406;2023-02-18T15:16:54;13.80;;;2.13;;
54263;SDS011;40178;53.042;6.406;2023-02-18T15:19:22;13.05;;;2.35;;
54263;SDS011;40178;53.042;6.406;2023-02-18T15:21:52;12.32;;;1.88;;
54263;SDS011;40178;53.042;6.406;2023-02-18T15:24:32;13.13;;;2.67;;
54263;SDS011;40178;53.042;6.406;2023-02-18T15:32:43;11.43;;;2.42;;
54263;SDS011;40178;53.042;6.406;2023-02-18T15:35:15;12.85;;;2.28;;
54263;SDS011;40178;53.042;6.406;2023-02-18T15:37:46;9.65;;;2.50;;
54263;SDS011;40178;53.042;6.406;2023-02-18T15:40:17;12.38;;;2.08;;
54263;SDS011;40178;53.042;6.406;2023-02-18T15:42:47;10.75;;;2.22;;
54263;SDS011;40178;53.042;6.406;2023-02-18T15:45:19;11.80;;;2.42;;
54263;SDS011;40178;53.042;6.406;2023-02-18T15:47:49;12.82;;;2.47;;
54263;SDS011;40178;53.042;6.406;2023-02-18T15:52:49;9.63;;;1.95;;
54263;SDS011;40178;53.042;6.406;2023-02-18T15:55:27;13.85;;;3.03;;
54263;SDS011;40178;53.042;6.406;2023-02-18T15:58:03;11.38;;;1.50;;
54263;SDS011;40178;53.042;6.406;2023-02-18T16:03:14;12.18;;;2.10;;
54263;SDS011;40178;53.042;6.406;2023-02-18T16:05:46;9.63;;;2.50;;
54263;SDS011;40178;53.042;6.406;2023-02-18T16:08:13;10.45;;;2.13;;
54263;SDS011;40178;53.042;6.406;2023-02-18T16:10:43;8.80;;;1.73;;
54263;SDS011;40178;53.042;6.406;2023-02-18T16:13:12;7.15;;;1.40;;
54263;SDS011;40178;53.042;6.406;2023-02-18T16:15:40;8.32;;;1.60;;
54263;SDS011;40178;53.042;6.406;2023-02-18T16:18:55;9.77;;;1.88;;
54263;SDS011;40178;53.042;6.406;2023-02-18T16:21:21;12.90;;;2.47;;
54263;SDS011;40178;53.042;6.406;2023-02-18T16:23:58;15.20;;;3.10;;
54263;SDS011;40178;53.042;6.406;2023-02-18T16:26:30;10.45;;;2.30;;
54263;SDS011;40178;53.042;6.406;2023-02-18T16:29:14;12.27;;;2.00;;
54263;SDS011;40178;53.042;6.406;2023-02-18T16:31:46;13.02;;;2.08;;
54263;SDS011;40178;53.042;6.406;2023-02-18T16:34:12;11.88;;;2.03;;
54263;SDS011;40178;53.042;6.406;2023-02-18T16:36:37;9.60;;;1.92;;
54263;SDS011;40178;53.042;6.406;2023-02-18T16:39:23;9.27;;;1.60;;
54263;SDS011;40178;53.042;6.406;2023-02-18T16:41:49;9.30;;;2.10;;
54263;SDS011;40178;53.042;6.406;2023-02-18T16:44:14;15.05;;;3.20;;
54263;SDS011;40178;53.042;6.406;2023-02-18T16:46:40;14.93;;;3.33;;
54263;SDS011;40178;53.042;6.406;2023-02-18T16:49:07;16.88;;;2.30;;
54263;SDS011;40178;53.042;6.406;2023-02-18T16:51:38;16.30;;;2.67;;
54263;SDS011;40178;53.042;6.406;2023-02-18T16:54:04;13.60;;;2.45;;
54263;SDS011;40178;53.042;6.406;2023-02-18T16:56:31;9.15;;;2.20;;
54263;SDS011;40178;53.042;6.406;2023-02-18T16:58:58;16.92;;;2.60;;
54263;SDS011;40178;53.042;6.406;2023-02-18T17:01:37;8.63;;;2.05;;
54263;SDS011;40178;53.042;6.406;2023-02-18T17:04:15;13.82;;;3.08;;
54263;SDS011;40178;53.042;6.406;2023-02-18T17:06:42;13.43;;;2.55;;
54263;SDS011;40178;53.042;6.406;2023-02-18T17:11:41;14.50;;;2.90;;
54263;SDS011;40178;53.042;6.406;2023-02-18T17:14:09;12.60;;;2.67;;
54263;SDS011;40178;53.042;6.406;2023-02-18T17:16:38;15.85;;;2.67;;
54263;SDS011;40178;53.042;6.406;2023-02-18T17:19:04;14.00;;;2.78;;
54263;SDS011;40178;53.042;6.406;2023-02-18T17:21:29;14.07;;;2.22;;
54263;SDS011;40178;53.042;6.406;2023-02-18T17:23:55;13.80;;;2.85;;
54263;SDS011;40178;53.042;6.406;2023-02-18T17:26:22;12.98;;;3.05;;
54263;SDS011;40178;53.042;6.406;2023-02-18T17:28:49;18.23;;;3.60;;
54263;SDS011;40178;53.042;6.406;2023-02-18T17:31:17;12.85;;;3.17;;
54263;SDS011;40178;53.042;6.406;2023-02-18T17:33:47;14.82;;;3.65;;
54263;SDS011;40178;53.042;6.406;2023-02-18T17:36:15;18.02;;;3.08;;
54263;SDS011;40178;53.042;6.406;2023-02-18T17:38:40;18.48;;;2.90;;
54263;SDS011;40178;53.042;6.406;2023-02-18T17:41:06;14.80;;;2.80;;
54263;SDS011;40178;53.042;6.406;2023-02-18T17:43:32;15.75;;;2.90;;
54263;SDS011;40178;53.042;6.406;2023-02-18T17:45:58;15.15;;;4.07;;